Flight Track Log - Related Links

Times and Time Zones

All times are in EDT time to prevent confusion due to time zone crossing. See the EJA846 flight status page for this flight to view local times or setup timezone preferences in your user account.

Time Position Orientation Groundspeed Altitude Reporting Facility
EDT Latitude Longitude Course Direction KTS MPH feet Rate Location/Type
Fri 10:35:19 AM 40.9167 -74.0333 194° South 189 217 2,600  Level New York TRACON
Fri 10:36:25 AM 40.9333 -74.1000 288° West 262 302 5,900 1,810 Climbing New York TRACON
Fri 10:37:25 AM 40.8833 -74.1500 217° Southwest 293 337 6,400 2,250 Climbing New York TRACON
Fri 10:38:25 AM 40.8000 -74.1833 197° South 295 339 10,400 3,550 Climbing New York TRACON
Fri 10:39:25 AM 40.7167 -74.2000 189° South 322 371 13,500 2,800 Climbing New York TRACON
Fri 10:40:00 AM 40.2548 -74.1651 194° South  Level FlightAware Approximate
Fri 10:40:25 AM 40.6167 -74.2000 180° South 338 389 16,000  Level New York TRACON
Fri 10:41:57 AM 40.4592 -74.2217 186° South 374 430 17,000 392 Climbing New York Center
Fri 10:42:58 AM 40.3650 -74.2306 184° South 390 449 17,000 1,024 Level New York Center
Fri 10:44:47 AM 40.1581 -74.2561 185° South 388 447 19,900 1,659 Climbing Washington Center
Fri 10:45:48 AM 40.0525 -74.3094 201° Southwest 393 452 21,700 1,721 Climbing Washington Center
Fri 10:46:49 AM 39.9469 -74.3656 202° Southwest 405 466 23,400 1,140 Climbing Washington Center
Fri 10:47:49 AM 39.8350 -74.4242 202° Southwest 418 481 24,000 1,169 Climbing Washington Center
Fri 10:48:47 AM 39.7442 -74.5283 221° Southwest 425 489 25,700 1,664 Climbing Washington Center
Fri 10:49:48 AM 39.6639 -74.6344 226° Southwest 425 489 27,300 2,380 Climbing Washington Center
Fri 10:50:48 AM 39.5856 -74.7381 226° Southwest 419 482 30,500 2,430 Climbing Washington Center
Fri 10:51:49 AM 39.5108 -74.8114 217° Southwest 404 465 32,200 1,785 Climbing Washington Center
Fri 10:52:49 AM 39.4156 -74.8717 206° Southwest 379 436 34,100 1,881 Climbing Washington Center
Fri 10:53:47 AM 39.3200 -74.9289 205° Southwest 379 436 35,900 1,714 Climbing Washington Center
Fri 10:54:48 AM 39.2286 -74.9833 205° Southwest 374 430 37,500 1,636 Climbing Washington Center
Fri 10:55:48 AM 39.1369 -75.0378 205° Southwest 374 430 39,200 1,240 Climbing Washington Center
Fri 10:56:49 AM 39.0436 -75.0892 203° Southwest 369 425 40,000 397 Climbing Washington Center
Fri 10:57:49 AM 38.9478 -75.1539 208° Southwest 374 430 40,000  Level Washington Center
Fri 10:58:47 AM 38.8439 -75.2158 205° Southwest 397 457 40,000  Level Washington Center
Fri 10:59:47 AM 38.7378 -75.2775 204° Southwest 413 475 40,000  Level Washington Center
Fri 11:00:48 AM 38.6317 -75.3444 206° Southwest 425 489 40,000  Level Washington Center
Fri 11:01:49 AM 38.5253 -75.4006 202° Southwest 425 489 40,000  Level Washington Center
Fri 11:02:50 AM 38.4211 -75.4697 207° Southwest 420 483 40,000  Level Washington Center
Fri 11:03:47 AM 38.3192 -75.5336 206° Southwest 420 483 40,000  Level Washington Center
Fri 11:04:47 AM 38.2272 -75.6181 216° Southwest 415 478 40,000  Level Washington Center
Fri 11:05:48 AM 38.1397 -75.7025 217° Southwest 415 478 40,000  Level Washington Center
Fri 11:06:49 AM 38.0500 -75.7869 217° Southwest 410 472 40,000  Level Washington Center
Fri 11:07:49 AM 37.9600 -75.8683 215° Southwest 410 472 40,000  Level Washington Center
Fri 11:08:47 AM 37.8619 -75.9625 217° Southwest 410 472 40,000  Level Washington Center
Fri 11:09:48 AM 37.7678 -76.0411 213° Southwest 410 472 40,000  Level Washington Center
Fri 11:10:48 AM 37.6653 -76.1033 206° Southwest 405 466 40,000  Level Washington Center
Fri 11:11:49 AM 37.5608 -76.1683 206° Southwest 405 466 40,000  Level Washington Center
Fri 11:12:49 AM 37.4603 -76.2328 207° Southwest 410 472 40,000  Level Washington Center
Fri 11:13:49 AM 37.3597 -76.2972 207° Southwest 410 472 40,000  Level Washington Center
Fri 11:14:48 AM 37.2572 -76.3669 208° Southwest 410 472 40,000  Level Washington Center
Fri 11:15:49 AM 37.1544 -76.4308 206° Southwest 410 472 40,000  Level Washington Center
Fri 11:16:47 AM 37.0728 -76.4847 208° Southwest 410 472 40,000  Level Washington Center
Fri 11:17:48 AM 36.9492 -76.5639 207° Southwest 415 478 40,000  Level Washington Center
Fri 11:18:48 AM 36.8608 -76.6225 208° Southwest 415 478 40,000  Level Washington Center
Fri 11:19:49 AM 36.7581 -76.6886 207° Southwest 415 478 40,000  Level Washington Center
Fri 11:20:49 AM 36.6533 -76.7569 208° Southwest 415 478 40,000  Level Washington Center
Fri 11:21:50 AM 36.5525 -76.8200 207° Southwest 415 478 40,000  Level Washington Center
Fri 11:22:47 AM 36.4411 -76.8906 207° Southwest 415 478 40,000  Level Washington Center
Fri 11:23:48 AM 36.3528 -76.9486 208° Southwest 415 478 40,000  Level Washington Center
Fri 11:24:49 AM 36.2478 -77.0111 206° Southwest 415 478 40,000  Level Washington Center
Fri 11:25:49 AM 36.1489 -77.0736 207° Southwest 415 478 40,000  Level Washington Center
Fri 11:26:49 AM 36.0542 -77.1361 208° Southwest 406 467 40,000  Level Washington Center
Fri 11:27:47 AM 35.9556 -77.1958 206° Southwest 396 456 40,000  Level Washington Center
Fri 11:28:47 AM 35.8586 -77.2606 208° Southwest 396 456 40,000  Level Washington Center
Fri 11:29:47 AM 35.7578 -77.3172 205° Southwest 396 456 40,000  Level Washington Center
Fri 11:30:48 AM 35.6608 -77.3817 208° Southwest 396 456 40,000  Level Washington Center
Fri 11:31:49 AM 35.5617 -77.4406 206° Southwest 396 456 40,000  Level Washington Center
Fri 11:32:49 AM 35.4606 -77.5019 206° Southwest 396 456 40,000  Level Washington Center
Fri 11:33:48 AM 35.3658 -77.5633 208° Southwest 396 456 40,000  Level Washington Center
Fri 11:34:48 AM 35.2831 -77.6453 219° Southwest 396 456 40,000  Level Washington Center
Fri 11:35:48 AM 35.1981 -77.7347 221° Southwest 396 456 40,000  Level Washington Center
Fri 11:36:49 AM 35.1172 -77.8189 220° Southwest 396 456 40,000  Level Washington Center
Fri 11:37:47 AM 35.0342 -77.9053 220° Southwest 396 456 40,000  Level Washington Center
Fri 11:38:48 AM 34.9511 -77.9917 220° Southwest 396 456 40,000  Level Washington Center
Fri 11:39:48 AM 34.8681 -78.0778 220° Southwest 396 456 40,000  Level Washington Center
Fri 11:40:48 AM 34.7867 -78.1664 222° Southwest 396 456 40,000  Level Washington Center
Fri 11:41:47 AM 34.7056 -78.2497 220° Southwest 396 456 40,000  Level Washington Center
Fri 11:42:48 AM 34.6139 -78.3453 221° Southwest 396 456 40,000  Level Washington Center
Fri 11:43:49 AM 34.5306 -78.4281 219° Southwest 391 450 40,000  Level Washington Center
Fri 11:44:08 AM 34.4989 -78.4511 211° Southwest 401 461 40,000  Level Jacksonville Center
Fri 11:45:08 AM 34.4267 -78.5328 223° Southwest 401 461 40,000  Level Jacksonville Center
Fri 11:46:08 AM 34.3419 -78.6175 220° Southwest 401 461 40,000  Level Jacksonville Center
Fri 11:47:08 AM 34.2592 -78.7019 220° Southwest 401 461 40,000  Level Jacksonville Center
Fri 11:48:08 AM 34.1742 -78.7839 219° Southwest 396 456 40,000  Level Jacksonville Center
Fri 11:49:08 AM 34.0914 -78.8681 220° Southwest 396 456 40,000  Level Jacksonville Center
Fri 11:50:08 AM 34.0083 -78.9494 219° Southwest 396 456 40,000  Level Jacksonville Center
Fri 11:51:08 AM 33.9256 -79.0308 219° Southwest 396 456 40,000  Level Jacksonville Center
Fri 11:52:08 AM 33.8403 -79.1144 219° Southwest 396 456 40,000  Level Jacksonville Center
Fri 11:53:08 AM 33.7592 -79.1956 220° Southwest 390 449 40,000  Level Jacksonville Center
Fri 11:54:08 AM 33.6719 -79.2789 218° Southwest 374 430 40,000  Level Jacksonville Center
Fri 11:55:08 AM 33.5908 -79.3622 221° Southwest 374 430 40,000  Level Jacksonville Center
Fri 11:56:08 AM 33.5075 -79.4428 219° Southwest 379 436 40,000  Level Jacksonville Center
Fri 11:57:08 AM 33.4219 -79.5231 218° Southwest 379 436 40,000  Level Jacksonville Center
Fri 11:58:08 AM 33.3408 -79.6033 220° Southwest 384 442 40,000  Level Jacksonville Center
Fri 11:59:08 AM 33.2592 -79.6833 219° Southwest 390 449 40,000  Level Jacksonville Center
Fri 12:00:08 PM 33.1758 -79.7631 219° Southwest 390 449 40,000  Level Jacksonville Center
Fri 12:01:08 PM 33.0922 -79.8431 219° Southwest 390 449 40,000  Level Jacksonville Center
Fri 12:02:08 PM 33.0083 -79.9225 218° Southwest 390 449 40,000  Level Jacksonville Center
Fri 12:03:08 PM 32.9350 -79.9942 219° Southwest 390 449 40,000  Level Jacksonville Center
Fri 12:04:08 PM 32.8492 -80.0711 217° Southwest 390 449 40,000  Level Jacksonville Center
Fri 12:05:08 PM 32.7567 -80.1383 211° Southwest 390 449 40,000  Level Jacksonville Center
Fri 12:06:08 PM 32.6642 -80.2078 212° Southwest 395 455 40,000  Level Jacksonville Center
Fri 12:07:08 PM 32.5675 -80.2772 211° Southwest 401 461 40,000  Level Jacksonville Center
Fri 12:08:08 PM 32.4750 -80.3489 213° Southwest 407 468 40,000  Level Jacksonville Center
Fri 12:09:08 PM 32.3717 -80.3983 202° Southwest 396 456 40,000  Level Jacksonville Center
Fri 12:10:08 PM 32.2722 -80.4428 201° Southwest 396 456 40,000  Level Jacksonville Center
Fri 12:11:08 PM 32.1647 -80.4900 200° South 401 461 40,000  Level Jacksonville Center
Fri 12:12:08 PM 32.0672 -80.5317 200° South 393 452 40,000  Level Jacksonville Center
Fri 12:13:08 PM 31.9556 -80.5811 201° Southwest 388 447 40,000  Level Jacksonville Center
Fri 12:14:08 PM 31.8622 -80.6225 201° Southwest 394 453 40,000  Level Jacksonville Center
Fri 12:15:08 PM 31.7525 -80.6717 201° Southwest 394 453 40,000  Level Jacksonville Center
Fri 12:16:08 PM 31.6508 -80.7131 199° South 388 447 40,000  Level Jacksonville Center
Fri 12:17:08 PM 31.5578 -80.7592 203° Southwest 393 452 40,000  Level Jacksonville Center
Fri 12:18:08 PM 31.4478 -80.8056 200° South 388 447 40,000  Level Jacksonville Center
Fri 12:19:08 PM 31.3419 -80.8492 199° South 393 452 40,000  Level Jacksonville Center
Fri 12:20:08 PM 31.2508 -80.8950 203° Southwest 400 460 40,000  Level Jacksonville Center
Fri 12:21:08 PM 31.1408 -80.9386 199° South 405 466 40,000  Level Jacksonville Center
Fri 12:22:08 PM 31.0414 -80.9819 200° South 405 466 40,000  Level Jacksonville Center
Fri 12:23:08 PM 30.9378 -81.0253 200° South 410 472 40,000  Level Jacksonville Center
Fri 12:24:08 PM 30.8319 -81.0708 200° South 410 472 40,000  Level Jacksonville Center
Fri 12:25:08 PM 30.7281 -81.1186 202° Southwest 410 472 40,000  Level Jacksonville Center
Fri 12:26:08 PM 30.6222 -81.1544 196° South 410 472 40,000  Level Jacksonville Center
Fri 12:27:08 PM 30.5094 -81.1542 180° South 397 457 40,000 -600 Level Jacksonville Center
Fri 12:28:08 PM 30.3967 -81.1467 177° South 404 465 38,800 -1,400 Descending Jacksonville Center
Fri 12:29:08 PM 30.2858 -81.1436 179° South 404 465 37,200 -1,500 Descending Jacksonville Center
Fri 12:30:08 PM 30.1792 -81.1386 178° South 398 458 35,800 -1,450 Descending Jacksonville Center
Fri 12:31:08 PM 30.0747 -81.1356 179° South 386 444 34,300 -1,550 Descending Jacksonville Center
Fri 12:32:08 PM 29.9706 -81.1350 180° South 386 444 32,700 -1,150 Descending Jacksonville Center
Fri 12:33:08 PM 29.8661 -81.1275 176° South 381 438 32,000 -350 Descending Jacksonville Center
Fri 12:34:08 PM 29.7653 -81.0908 162° South 381 438 32,000  Level Jacksonville Center
Fri 12:35:08 PM 29.6767 -81.0186 145° Southeast 374 430 32,000 -700 Level Jacksonville Center
Fri 12:36:08 PM 29.5856 -80.9439 144° Southeast 388 447 30,600 -1,800 Descending Jacksonville Center
Fri 12:37:08 PM 29.4744 -80.9078 164° South 394 453 28,400 -2,200 Descending Jacksonville Center
Fri 12:38:08 PM 29.3614 -80.8769 167° South 408 470 26,200 -2,147 Descending Jacksonville Center
Fri 12:38:57 PM 29.2567 -80.8569 171° South 421 484 24,500 -2,147 Descending Miami Center
Fri 12:39:57 PM 29.1594 -80.8344 169° South 404 465 22,300 -1,250 Descending Miami Center
Fri 12:40:57 PM 29.0517 -80.8114 169° South 404 465 22,000 -149 Descending Miami Center
Fri 12:41:58 PM 28.9500 -80.7842 167° South 391 450 22,000  Level Miami Center
Fri 12:42:58 PM 28.8383 -80.7542 167° South 381 438 22,000 -550 Level Miami Center
Fri 12:43:58 PM 28.7428 -80.7342 170° South 381 438 20,900 -1,664 Descending Miami Center
Fri 12:44:57 PM 28.6308 -80.7067 168° South 387 445 18,700 -1,916 Descending Miami Center
Fri 12:45:57 PM 28.5442 -80.6778 164° South 382 440 17,100 -1,750 Descending Miami Center
Fri 12:46:57 PM 28.4575 -80.6347 156° South 356 410 15,200 -1,983 Descending Miami Center
Fri 12:47:58 PM 28.3650 -80.5889 156° South 337 388 13,100 -1,950 Descending Miami Center
Fri 12:48:57 PM 28.2867 -80.5511 157° South 331 381 11,300 -1,550 Descending Miami Center
Fri 12:49:58 PM 28.1897 -80.5078 158° South 331 381 10,000 -650 Descending Miami Center
Fri 12:50:57 PM 28.1111 -80.4725 158° South 336 387 10,000  Level Miami Center
Fri 12:51:57 PM 28.0286 -80.4344 158° South 336 387 10,000 -800 Level Miami Center
Fri 12:52:57 PM 27.9564 -80.3992 157° South 314 361 8,400 -1,750 Descending Miami Center
Fri 12:53:57 PM 27.8867 -80.3500 148° Southeast 299 344 6,500 -2,100 Descending Miami Center
Fri 12:54:57 PM 27.8189 -80.3011 147° Southeast 271 312 4,200 -2,100 Descending Miami Center
Fri 12:55:57 PM 27.7575 -80.2569 148° Southeast 265 305 2,300 -1,091 Descending Miami Center
Fri 12:56:58 PM 27.7000 -80.2178 149° Southeast 255 293 2,000 -150 Descending Miami Center
Fri 12:57:57 PM 27.6481 -80.2044 167° South 226 260 2,000 -50 Level Miami Center
Fri 12:58:57 PM 27.6014 -80.2314 207° Southwest 198 228 1,900 -50 Descending Miami Center
Fri 12:59:57 PM 27.6125 -80.2947 281° West 152 175 1,900 -300 Level Miami Center
Fri 01:00:57 PM 27.6239 -80.3350 288° West 147 169 1,300 -550 Descending Miami Center
Fri 01:01:57 PM 27.6378 -80.3706 294° West 131 151 800 -545 Descending Miami Center
Fri 01:02:58 PM 27.6475 -80.3992 291° West 126 145 200 -590 Descending Miami Center
Fri 01:04:00 PM 27.6556 -80.4179 106° East  Level Estimated

Login

Don't have an account? Register now (free) for customized features, flight alerts, and more!